Four Nabucco — ZGAP9 — position and weather

sailwx.info

Track history (hours):
 
Tides and Currents Weather Stations Pressure Air Temp Water Temp Dewpoint Dewpoint Depression Visibility Wind Speed Wind Dir Waves Ship Positions

Four Nabucco

Last reported at 2014-Nov-30 15:33 UTC. Time now 2014-Dec-23 02:20 UTC.
Position N 36°01' W 005°15'.
Warning: this ship's position is 22 days out of date.

Length 180 m; draft 8.8 m.

Type: Cargo ship. MMSI: 319030700.

Date/timePositionNaut miles runAvg speedWind from/ knotsBaromVisibWave heightAir tempDewpointWater temp
2014-Nov-30 15:33N 36°01' W 005°15'8 7.5
2014-Nov-30 14:32N 35°55' W 005°19'0 0.1
2014-Nov-30 13:32N 35°55' W 005°20'0 0.1
2014-Nov-30 12:32N 35°55' W 005°19'0 0.1
2014-Nov-30 11:32N 35°55' W 005°19'0 0.1
2014-Nov-30 10:32N 35°55' W 005°19'0 0.0
2014-Nov-30 09:32N 35°55' W 005°19'0 0.0
2014-Nov-30 08:32N 35°55' W 005°19'0 0.0
2014-Nov-30 07:32N 35°55' W 005°19'0 0.3
2014-Nov-30 06:33N 35°55' W 005°19'5 4.5
2014-Nov-30 05:33N 35°58' W 005°23'  
2014-Nov-25 21:31N 50°40' E 000°43'3413.7
2014-Nov-25 19:04N 51°05' E 001°18'3 6.3
2014-Nov-25 18:34N 51°06' E 001°23'1212.0
2014-Nov-25 17:33N 51°10' E 001°41'1312.7
2014-Nov-25 16:33N 51°21' E 001°52'1211.9
2014-Nov-25 15:33N 51°31' E 002°02'48411.4
2014-Nov-23 21:10N 57°40' E 011°04'914.4
2014-Nov-23 20:33N 57°33' E 011°16'1514.0
2014-Nov-23 19:29N 57°21' E 011°31'17611.5
2014-Nov-23 04:17N 54°26' E 011°54'10212.9
2014-Nov-22 20:22N 55°19' E 014°26'1713.3
2014-Nov-22 19:07N 55°30' E 014°48'37313.0
2014-Nov-21 14:32N 59°38' E 023°26'9713.8
2014-Nov-21 07:29N 60°01' E 026°34'  
Track history (hours):
 
Tides and Currents Weather Stations Pressure Air Temp Water Temp Dewpoint Dewpoint Depression Visibility Wind Speed Wind Dir Waves Ship Positions

Four Nabucco

Last reported at 2014-Nov-30 15:33 UTC. Time now 2014-Dec-23 02:20 UTC.
Position N 36°01' W 005°15'.
Warning: this ship's position is 22 days out of date.

Length 180 m; draft 8.8 m.

Type: Cargo ship. MMSI: 319030700.

Date/timePositionNaut miles runAvg speedWind from/ knotsBaromVisibWave heightAir tempDewpointWater temp
2014-Nov-30 15:33N 36°01' W 005°15'8 7.5
2014-Nov-30 14:32N 35°55' W 005°19'0 0.1
2014-Nov-30 13:32N 35°55' W 005°20'0 0.1
2014-Nov-30 12:32N 35°55' W 005°19'0 0.1
2014-Nov-30 11:32N 35°55' W 005°19'0 0.1
2014-Nov-30 10:32N 35°55' W 005°19'0 0.0
2014-Nov-30 09:32N 35°55' W 005°19'0 0.0
2014-Nov-30 08:32N 35°55' W 005°19'0 0.0
2014-Nov-30 07:32N 35°55' W 005°19'0 0.3
2014-Nov-30 06:33N 35°55' W 005°19'5 4.5
2014-Nov-30 05:33N 35°58' W 005°23'  
2014-Nov-25 21:31N 50°40' E 000°43'3413.7
2014-Nov-25 19:04N 51°05' E 001°18'3 6.3
2014-Nov-25 18:34N 51°06' E 001°23'1212.0
2014-Nov-25 17:33N 51°10' E 001°41'1312.7
2014-Nov-25 16:33N 51°21' E 001°52'1211.9
2014-Nov-25 15:33N 51°31' E 002°02'48411.4
2014-Nov-23 21:10N 57°40' E 011°04'914.4
2014-Nov-23 20:33N 57°33' E 011°16'1514.0
2014-Nov-23 19:29N 57°21' E 011°31'17611.5
2014-Nov-23 04:17N 54°26' E 011°54'10212.9
2014-Nov-22 20:22N 55°19' E 014°26'1713.3
2014-Nov-22 19:07N 55°30' E 014°48'37313.0
2014-Nov-21 14:32N 59°38' E 023°26'9713.8
2014-Nov-21 07:29N 60°01' E 026°34'  

Dump ship's entire track history